Boulder, CO

4:16 PM MDT on April 29, 2017 (GMT -0600)
| | Change Station
Active Advisory: Freeze Warning

Elev -9999 ft 0.00 °N, 0.00 °E | Updated

Light Snow
Light Snow
°F
Feels Like °F
N
Wind Variable Wind from North
Gusts mph

Today
High -- | Low -- °F
--% Chance of Precip.
Yesterday
High -- | Low -- °F
Precip. -- in
Pressure 30.20 in
Visibility 5.0 miles
Clouds Scattered Clouds 1600 ft
Overcast 2300 ft
Dew Point Not available.
Humidity Not available.
Rainfall --
Snow Depth Not available.
6:03 AM 7:54 PM
Waxing Crescent, 17% visible
METAR KBDU 292157Z AUTO 02008KT 5SM -SN SCT016 OVC023 01/M02 A3020 RMK AO2
Pressure 30.20 in
Visibility 5.0 miles
Clouds Scattered Clouds 1600 ft
Overcast 2300 ft
Dew Point Not available.
Humidity Not available.
Rainfall --
Snow Depth Not available.
6:03 AM 7:54 PM
Waxing Crescent, 17% visible
METAR KBDU 292157Z AUTO 02008KT 5SM -SN SCT016 OVC023 01/M02 A3020 RMK AO2

Get Your Daily Forecast Email!

Thanks for signing up!

Be on the lookout for a verification email in your inbox.

You'll start receiving severe weather alerts in your inbox..

×

10-Day Weather Forecast

Almanac

Astronomy

Apr. 29, 2017 Rise Set
Actual Time
Civil Twilight
Nautical Twilight
Astronomical Twilight
Moon
Length of Visible Light
Length of Day
Tomorrow will be .
, % of the Moon is Illuminated

Today's Extremes

State Highs State Lows

Community

WunderPhotos

WunderBlog® & News

Nearby

Air Quality

  Air Quality AQ Index Pollutant
Not available.

Snow Depth

Station Depth Elevation

Earthquake Activity

City Distance Mag. Time & Date
Minimum magnitude displayed is 2.5.

Coastal Water Temperatures

Place Temperature

Stations

Nearby Weather Stations

Station Location Temp. Windchill Dew Point Humidity Wind Precip. Elev Updated Type
                   

Watches & Warnings

Freeze Warning
Issued: 3:25 PM MDT Apr. 29, 2017 – National Weather Service

... Freeze warning in effect from 10 PM this evening to 8 am MDT
Sunday...

The National Weather Service in Denver has issued a freeze
warning, which is in effect from 10 PM this evening to 8 am MDT
Sunday.

* Temperature... lows in the mid to upper 20s in most areas.
Coldest spots near 20 degrees, mainly low lying areas north of
Denver.

* Impacts... damage to irrigation systems and tender vegetation.

Precautionary/preparedness actions...

Residents should drain sprinkler systems, unhook hoses, and
protect cold-sensitive vegetation.



Gimmestad